Time;durP1;ratioP1;P1;durP2;ratioP2;P2;SDS_P1;SDS_P2;PMS_P1;PMS_P2;Temp;Humidity;BMP_temperature;BMP_pressure;BME280_temperature;BME280_humidity;BME280_pressure;Samples;Min_cycle;Max_cycle;Signal;HPM_P1;HPM_P2
2023/09/02 00:01:39;;;;;;;31.92;24.20;;;18.40;99.90;;;;;;4958846;28;20026;-73
2023/09/02 00:04:08;;;;;;;31.77;25.73;;;18.40;99.90;;;;;;4951680;28;20023;-73
2023/09/02 00:06:33;;;;;;;30.23;22.20;;;18.40;99.90;;;;;;4958658;28;20047;-73
2023/09/02 00:08:59;;;;;;;31.55;24.35;;;18.40;99.90;;;;;;4965147;28;20047;-73
2023/09/02 00:11:24;;;;;;;31.67;24.02;;;18.40;99.90;;;;;;4939293;29;20034;-73
2023/09/02 00:13:50;;;;;;;30.48;23.48;;;18.40;99.90;;;;;;4966917;28;20020;-73
2023/09/02 00:16:17;;;;;;;30.85;23.90;;;18.40;99.90;;;;;;4960851;28;20044;-73
2023/09/02 00:18:43;;;;;;;29.77;22.73;;;18.40;99.90;;;;;;4958998;28;20030;-73
2023/09/02 00:21:12;;;;;;;28.50;23.10;;;18.30;99.90;;;;;;4944290;28;20560;-73
2023/09/02 00:23:45;;;;;;;32.83;24.27;;;18.30;99.90;;;;;;4960631;28;20027;-73
2023/09/02 00:26:15;;;;;;;31.33;24.58;;;18.30;99.90;;;;;;4952830;29;20047;-73
2023/09/02 00:28:40;;;;;;;32.78;23.88;;;18.30;99.90;;;;;;4968507;28;20457;-73
2023/09/02 00:31:06;;;;;;;26.77;21.40;;;18.30;99.90;;;;;;4962207;28;20022;-73
2023/09/02 00:33:31;;;;;;;27.88;22.33;;;18.30;99.90;;;;;;4966603;28;20449;-73
2023/09/02 00:35:57;;;;;;;28.92;24.10;;;18.20;99.90;;;;;;4958533;28;20386;-73
2023/09/02 00:38:23;;;;;;;30.15;24.63;;;18.20;99.90;;;;;;4969823;28;20051;-73
2023/09/02 00:41:02;;;;;;;30.33;22.55;;;18.20;99.90;;;;;;4970172;28;20030;-73
2023/09/02 00:43:29;;;;;;;27.85;22.20;;;18.20;99.90;;;;;;4952232;28;20293;-73
2023/09/02 00:45:55;;;;;;;28.58;22.38;;;18.10;99.90;;;;;;4962628;28;20096;-71
2023/09/02 00:48:21;;;;;;;28.73;22.80;;;18.10;99.90;;;;;;4948502;28;20052;-73
2023/09/02 00:50:47;;;;;;;31.13;22.80;;;18.00;99.90;;;;;;4964252;28;20027;-72
2023/09/02 00:53:12;;;;;;;32.45;23.55;;;18.00;99.90;;;;;;4969716;28;20043;-73
2023/09/02 00:55:39;;;;;;;32.20;23.83;;;18.00;99.90;;;;;;4966090;28;20121;-73
2023/09/02 00:58:11;;;;;;;30.67;23.75;;;18.00;99.90;;;;;;4959908;28;20747;-73
2023/09/02 01:00:37;;;;;;;28.33;21.65;;;17.90;99.90;;;;;;4965122;28;20015;-73
2023/09/02 01:03:03;;;;;;;27.42;21.48;;;17.90;99.90;;;;;;4961517;28;20031;-73
2023/09/02 01:05:29;;;;;;;26.83;20.75;;;17.90;99.90;;;;;;4968685;28;20031;-73
2023/09/02 01:07:56;;;;;;;30.80;24.23;;;17.90;99.90;;;;;;4968472;28;20418;-73
2023/09/02 01:10:23;;;;;;;30.52;23.20;;;17.80;99.90;;;;;;4960628;28;20489;-73
2023/09/02 01:12:50;;;;;;;27.50;22.10;;;17.80;99.90;;;;;;4963187;28;20026;-73
2023/09/02 01:15:16;;;;;;;30.70;23.92;;;17.80;99.90;;;;;;4962233;28;20070;-73
2023/09/02 01:17:42;;;;;;;31.25;22.52;;;17.80;99.90;;;;;;4969104;28;20019;-74
2023/09/02 01:20:11;;;;;;;29.42;23.55;;;17.80;99.90;;;;;;4967145;28;20489;-73
2023/09/02 01:23:03;;;;;;;32.20;24.20;;;17.80;99.90;;;;;;4961398;28;20023;-71
2023/09/02 01:25:53;;;;;;;31.70;23.13;;;17.80;99.90;;;;;;4966057;28;20035;-73
2023/09/02 01:28:34;;;;;;;27.00;21.05;;;17.80;99.90;;;;;;4944980;29;20106;-73
2023/09/02 01:31:03;;;;;;;29.25;21.63;;;17.80;99.90;;;;;;4969287;28;20035;-73
2023/09/02 01:33:29;;;;;;;33.55;23.25;;;17.80;99.90;;;;;;4955380;28;20070;-72
2023/09/02 01:35:58;;;;;;;31.35;23.13;;;17.80;99.90;;;;;;4969150;28;20019;-73
2023/09/02 01:38:27;;;;;;;27.95;22.15;;;17.80;99.90;;;;;;4962580;28;20070;-73
2023/09/02 01:40:54;;;;;;;29.58;22.83;;;17.90;99.90;;;;;;4943985;28;20019;-73
2023/09/02 01:43:23;;;;;;;27.00;20.20;;;17.90;99.90;;;;;;4967835;28;20023;-73
2023/09/02 01:45:53;;;;;;;29.00;22.63;;;17.90;99.90;;;;;;4968338;28;20517;-73
2023/09/02 01:48:19;;;;;;;26.95;21.70;;;17.90;99.90;;;;;;4960882;28;20026;-73
2023/09/02 01:50:46;;;;;;;26.27;21.02;;;17.90;99.90;;;;;;4946044;29;20031;-73
2023/09/02 01:53:11;;;;;;;29.98;22.52;;;17.90;99.90;;;;;;4947783;29;20053;-73
2023/09/02 01:55:37;;;;;;;30.13;23.05;;;17.90;99.90;;;;;;4947189;28;20019;-73
2023/09/02 01:58:03;;;;;;;32.67;23.48;;;17.90;99.90;;;;;;4960247;28;20042;-73
2023/09/02 02:00:29;;;;;;;30.30;23.10;;;17.90;99.90;;;;;;4966760;28;20047;-73
2023/09/02 02:02:55;;;;;;;30.45;23.23;;;17.90;99.90;;;;;;4964228;28;20077;-73
2023/09/02 02:05:29;;;;;;;35.05;23.60;;;17.90;99.90;;;;;;4958233;28;20034;-74
2023/09/02 02:08:01;;;;;;;27.27;21.35;;;18.00;99.90;;;;;;4955858;28;20035;-73
2023/09/02 02:10:29;;;;;;;28.42;21.38;;;18.00;99.90;;;;;;4968561;28;20074;-73
2023/09/02 02:13:01;;;;;;;31.02;23.52;;;18.00;99.90;;;;;;4962503;28;20122;-73
2023/09/02 02:15:27;;;;;;;35.78;24.15;;;18.00;99.90;;;;;;4959455;28;20023;-73
2023/09/02 02:17:52;;;;;;;29.73;21.45;;;18.00;99.90;;;;;;4967043;28;20034;-73
2023/09/02 02:20:25;;;;;;;30.83;21.27;;;18.00;99.90;;;;;;4954391;29;20055;-73
2023/09/02 02:22:51;;;;;;;33.55;23.17;;;18.00;99.90;;;;;;4947317;28;20037;-73
2023/09/02 02:25:17;;;;;;;35.78;24.70;;;18.00;99.90;;;;;;4962200;28;20035;-74
2023/09/02 02:27:43;;;;;;;32.03;22.30;;;18.00;99.90;;;;;;4950565;29;20028;-73
2023/09/02 02:30:09;;;;;;;38.33;24.48;;;18.00;99.90;;;;;;4962511;28;20094;-73
2023/09/02 02:32:34;;;;;;;38.30;24.48;;;18.00;99.90;;;;;;4956626;28;20023;-73
2023/09/02 02:35:01;;;;;;;34.80;21.98;;;18.00;99.90;;;;;;4966050;28;20020;-73
2023/09/02 02:37:26;;;;;;;33.60;20.70;;;18.00;99.90;;;;;;4967921;28;20453;-73
2023/09/02 02:39:52;;;;;;;34.28;22.45;;;18.00;99.90;;;;;;4960305;28;20149;-73
2023/09/02 02:42:18;;;;;;;41.33;25.40;;;18.00;99.90;;;;;;4961786;28;20054;-73
2023/09/02 02:44:44;;;;;;;37.72;23.25;;;18.00;99.90;;;;;;4958453;28;20022;-73
2023/09/02 02:47:13;;;;;;;36.15;24.00;;;18.00;99.90;;;;;;4962985;28;20079;-74
2023/09/02 02:49:39;;;;;;;34.85;22.60;;;18.00;99.90;;;;;;4967795;28;20127;-71
2023/09/02 02:52:04;;;;;;;34.45;23.08;;;18.00;99.90;;;;;;4962203;28;20125;-73
2023/09/02 02:54:30;;;;;;;38.70;23.17;;;18.00;99.90;;;;;;4959868;28;20023;-73
2023/09/02 02:56:56;;;;;;;34.90;23.20;;;18.00;99.90;;;;;;4966946;28;20027;-71
2023/09/02 02:59:22;;;;;;;34.67;22.10;;;18.00;99.90;;;;;;4966256;28;20015;-71
2023/09/02 03:01:50;;;;;;;35.67;22.92;;;18.10;99.90;;;;;;4959491;28;20062;-71
2023/09/02 03:04:17;;;;;;;34.45;21.88;;;18.10;99.90;;;;;;4969277;28;20038;-71
2023/09/02 03:06:49;;;;;;;36.90;22.35;;;18.10;99.90;;;;;;4959560;28;20548;-72
2023/09/02 03:09:14;;;;;;;33.50;22.55;;;18.10;99.90;;;;;;4963649;28;20580;-71
2023/09/02 03:11:40;;;;;;;35.30;23.60;;;18.00;99.90;;;;;;4957385;28;20031;-72
2023/09/02 03:14:06;;;;;;;38.85;23.00;;;18.00;99.90;;;;;;4967318;28;20031;-71
2023/09/02 03:16:31;;;;;;;36.83;23.98;;;18.00;99.90;;;;;;4963295;28;20026;-72
2023/09/02 03:18:57;;;;;;;35.72;23.40;;;18.00;99.90;;;;;;4959170;28;20027;-71
2023/09/02 03:21:23;;;;;;;36.22;23.85;;;18.00;99.90;;;;;;4965238;28;20042;-72
2023/09/02 03:23:48;;;;;;;36.65;23.67;;;18.00;99.90;;;;;;4966940;28;20038;-72
2023/09/02 03:26:24;;;;;;;40.78;25.70;;;18.00;99.90;;;;;;4959096;28;20731;-71
2023/09/02 03:28:50;;;;;;;36.35;23.77;;;18.00;99.90;;;;;;4942490;29;20035;-71
2023/09/02 03:31:18;;;;;;;36.78;24.27;;;18.10;99.90;;;;;;4966789;28;20054;-71
2023/09/02 03:33:44;;;;;;;39.78;24.05;;;18.10;99.90;;;;;;4964397;28;20026;-72
2023/09/02 03:36:19;;;;;;;39.00;23.80;;;18.00;99.90;;;;;;4959280;28;20033;-72
2023/09/02 03:38:45;;;;;;;39.92;20.60;;;18.00;99.90;;;;;;4950794;29;20039;-71
2023/09/02 03:41:12;;;;;;;46.42;23.67;;;18.00;99.90;;;;;;4966916;28;20031;-71
2023/09/02 03:43:38;;;;;;;38.55;23.00;;;18.00;99.90;;;;;;4961773;28;20019;-71
2023/09/02 03:46:04;;;;;;;44.85;26.13;;;18.00;99.90;;;;;;4959192;28;20438;-72
2023/09/02 03:48:30;;;;;;;35.65;23.60;;;18.00;99.90;;;;;;4965316;28;20498;-71
2023/09/02 03:51:05;;;;;;;37.88;24.50;;;18.00;99.90;;;;;;4965900;28;20081;-71
2023/09/02 03:53:34;;;;;;;36.85;22.92;;;18.00;99.90;;;;;;4947356;28;20385;-71
2023/09/02 03:56:00;;;;;;;33.17;21.70;;;18.00;99.90;;;;;;4966019;28;20118;-72
2023/09/02 03:58:34;;;;;;;34.60;22.60;;;18.00;99.90;;;;;;4966405;28;20019;-71
2023/09/02 04:01:00;;;;;;;39.53;24.85;;;18.00;99.90;;;;;;4961381;28;20035;-71
2023/09/02 04:03:27;;;;;;;47.88;24.63;;;18.00;99.90;;;;;;4962417;28;20040;-72
2023/09/02 04:05:53;;;;;;;51.92;23.95;;;18.00;99.90;;;;;;4966804;28;20024;-71
2023/09/02 04:08:21;;;;;;;34.53;22.35;;;18.00;99.90;;;;;;4968746;28;20713;-71
2023/09/02 04:10:51;;;;;;;37.67;23.50;;;18.00;99.90;;;;;;4956476;28;20060;-71
2023/09/02 04:13:24;;;;;;;37.95;23.15;;;18.00;99.90;;;;;;4948279;29;20030;-71
2023/09/02 04:15:54;;;;;;;42.22;24.80;;;18.00;99.90;;;;;;4970693;28;20023;-71
2023/09/02 04:18:20;;;;;;;45.15;27.05;;;18.00;99.90;;;;;;4967201;28;20019;-71
2023/09/02 04:20:49;;;;;;;41.33;25.00;;;18.00;99.90;;;;;;4962786;28;20026;-71
2023/09/02 04:23:15;;;;;;;39.33;24.52;;;18.10;99.90;;;;;;4965528;28;20126;-71
2023/09/02 04:25:48;;;;;;;47.30;27.90;;;18.00;99.90;;;;;;4958113;28;20043;-71
2023/09/02 04:28:15;;;;;;;46.38;24.30;;;18.00;99.90;;;;;;4967761;28;20059;-71
2023/09/02 04:30:42;;;;;;;43.55;26.40;;;18.00;99.90;;;;;;4970619;28;20054;-72
2023/09/02 04:33:08;;;;;;;41.53;24.48;;;18.00;99.90;;;;;;4962802;28;20027;-71
2023/09/02 04:35:45;;;;;;;43.10;26.17;;;18.00;99.90;;;;;;4959033;28;20032;-71
2023/09/02 04:38:16;;;;;;;43.47;26.05;;;18.10;99.90;;;;;;4949390;28;20039;-72
2023/09/02 04:40:47;;;;;;;41.55;24.30;;;18.00;99.90;;;;;;4946032;29;20027;-72
2023/09/02 04:43:14;;;;;;;39.83;25.52;;;18.00;99.90;;;;;;4961636;28;20058;-71
2023/09/02 04:45:41;;;;;;;42.72;25.48;;;18.00;99.90;;;;;;4947251;29;20035;-72
2023/09/02 04:48:10;;;;;;;41.15;25.48;;;18.10;99.90;;;;;;4969664;28;20497;-71
2023/09/02 04:50:37;;;;;;;41.40;25.40;;;18.00;99.90;;;;;;4966595;28;20049;-71
2023/09/02 04:53:03;;;;;;;36.42;23.48;;;18.00;99.90;;;;;;4944249;28;20023;-72
2023/09/02 04:55:29;;;;;;;34.05;22.52;;;18.00;99.90;;;;;;4967351;28;20030;-71
2023/09/02 04:57:56;;;;;;;36.20;23.00;;;18.00;99.90;;;;;;4969587;28;20023;-71
2023/09/02 05:00:28;;;;;;;37.38;24.17;;;18.10;99.90;;;;;;4959797;28;20019;-71
2023/09/02 05:02:55;;;;;;;33.78;22.88;;;18.10;99.90;;;;;;4965870;28;20070;-71
2023/09/02 05:05:22;;;;;;;32.30;20.77;;;18.00;99.90;;;;;;4961732;28;20026;-71
2023/09/02 05:07:51;;;;;;;32.30;21.67;;;18.10;99.90;;;;;;4959825;28;20511;-71
2023/09/02 05:10:17;;;;;;;34.20;22.63;;;18.00;99.90;;;;;;4960337;28;20105;-72
2023/09/02 05:12:43;;;;;;;33.47;21.98;;;18.10;99.90;;;;;;4962198;28;20038;-72
2023/09/02 05:15:09;;;;;;;32.17;21.98;;;18.00;99.90;;;;;;4972313;28;20031;-72
2023/09/02 05:17:35;;;;;;;31.15;21.15;;;18.00;99.90;;;;;;4961418;28;20022;-71
2023/09/02 05:20:03;;;;;;;30.42;21.08;;;18.10;99.90;;;;;;4965029;28;20031;-72
2023/09/02 05:22:29;;;;;;;34.40;22.05;;;18.10;99.90;;;;;;4958322;28;20022;-71
2023/09/02 05:24:58;;;;;;;30.48;20.45;;;18.00;99.90;;;;;;4949086;29;20469;-71
2023/09/02 05:27:24;;;;;;;32.10;21.58;;;18.00;99.90;;;;;;4969142;28;20030;-72
2023/09/02 05:29:49;;;;;;;30.52;20.83;;;18.10;99.90;;;;;;4963162;28;20094;-72
2023/09/02 05:32:16;;;;;;;34.40;22.67;;;18.10;99.90;;;;;;4961707;28;20394;-71
2023/09/02 05:34:43;;;;;;;31.52;21.38;;;18.10;99.90;;;;;;4969227;28;20043;-72
2023/09/02 05:37:08;;;;;;;34.17;22.98;;;18.00;99.90;;;;;;4967151;28;20094;-71
2023/09/02 05:39:34;;;;;;;30.08;20.63;;;18.10;99.90;;;;;;4961003;28;20508;-72
2023/09/02 05:42:00;;;;;;;31.45;21.50;;;18.10;99.90;;;;;;4965617;28;20106;-72
2023/09/02 05:44:25;;;;;;;31.70;21.50;;;18.10;99.90;;;;;;4968939;28;20031;-72
2023/09/02 05:46:51;;;;;;;39.30;23.27;;;18.10;99.90;;;;;;4963124;28;20019;-72
2023/09/02 05:49:17;;;;;;;40.22;24.08;;;18.10;99.90;;;;;;4943683;29;20031;-72
2023/09/02 05:51:43;;;;;;;34.75;21.20;;;18.10;99.90;;;;;;4968927;28;20019;-72
2023/09/02 05:54:09;;;;;;;38.58;23.77;;;18.10;99.90;;;;;;4966317;28;20027;-72
2023/09/02 05:56:38;;;;;;;35.38;22.60;;;18.10;99.90;;;;;;4962054;28;20051;-71
2023/09/02 05:59:08;;;;;;;38.33;22.92;;;18.10;99.90;;;;;;4964410;28;20031;-72
2023/09/02 06:01:33;;;;;;;41.58;22.13;;;18.10;99.90;;;;;;4953498;28;20036;-71
2023/09/02 06:03:59;;;;;;;37.97;23.48;;;18.10;99.90;;;;;;4953387;28;20035;-71
2023/09/02 06:06:25;;;;;;;37.97;23.65;;;18.10;99.90;;;;;;4937283;28;20052;-71
2023/09/02 06:08:53;;;;;;;38.55;23.90;;;18.10;99.90;;;;;;4967676;28;20361;-71
2023/09/02 06:11:22;;;;;;;35.13;21.65;;;18.10;99.90;;;;;;4954992;28;20044;-72
2023/09/02 06:13:47;;;;;;;33.85;21.80;;;18.10;99.90;;;;;;4955366;28;20031;-71
2023/09/02 06:16:13;;;;;;;31.13;21.38;;;18.10;99.90;;;;;;4959869;28;20059;-71
2023/09/02 06:18:39;;;;;;;36.22;24.23;;;18.10;99.90;;;;;;4954039;28;20031;-71
2023/09/02 06:21:12;;;;;;;40.22;22.67;;;18.10;99.90;;;;;;4971340;28;20131;-71
2023/09/02 06:23:41;;;;;;;38.53;23.92;;;18.10;99.90;;;;;;4961491;28;20055;-71
2023/09/02 06:26:06;;;;;;;39.22;23.63;;;18.10;99.90;;;;;;4968490;28;20027;-72
2023/09/02 06:28:33;;;;;;;39.53;24.90;;;18.20;99.90;;;;;;4954405;28;20134;-71
2023/09/02 06:31:06;;;;;;;39.55;24.50;;;18.20;99.90;;;;;;4953886;28;20030;-71
2023/09/02 06:33:32;;;;;;;39.78;24.48;;;18.20;99.90;;;;;;4954045;29;20030;-71
2023/09/02 06:35:57;;;;;;;47.38;28.05;;;18.20;99.90;;;;;;4961755;28;20019;-71
2023/09/02 06:38:30;;;;;;;46.08;25.67;;;18.20;99.90;;;;;;4958437;28;20043;-72
2023/09/02 06:40:56;;;;;;;58.42;30.27;;;18.20;99.90;;;;;;4968037;28;20026;-72
2023/09/02 06:43:21;;;;;;;41.35;25.10;;;18.20;99.90;;;;;;4960715;28;20098;-72
2023/09/02 06:45:47;;;;;;;58.47;31.63;;;18.10;99.90;;;;;;4961489;28;20162;-71
2023/09/02 06:48:13;;;;;;;45.75;27.75;;;18.10;99.90;;;;;;4971864;28;20046;-71
2023/09/02 06:50:38;;;;;;;43.33;26.65;;;18.10;99.90;;;;;;4954528;28;20507;-71
2023/09/02 06:53:04;;;;;;;48.40;27.67;;;18.10;99.90;;;;;;4964601;28;20552;-71
2023/09/02 06:55:30;;;;;;;49.33;27.83;;;18.10;99.90;;;;;;4959710;28;20030;-72
2023/09/02 06:57:55;;;;;;;44.90;25.67;;;18.10;99.90;;;;;;4956544;28;20074;-72
2023/09/02 07:00:21;;;;;;;45.00;26.50;;;18.10;99.90;;;;;;4938880;29;20560;-72
2023/09/02 07:02:47;;;;;;;49.80;28.33;;;18.20;99.90;;;;;;4952543;28;20031;-71
2023/09/02 07:05:13;;;;;;;51.70;29.02;;;18.20;99.90;;;;;;4956568;28;20027;-72
2023/09/02 07:07:38;;;;;;;47.35;26.75;;;18.20;99.90;;;;;;4969900;28;20668;-71
2023/09/02 07:10:05;;;;;;;39.75;24.40;;;18.20;99.90;;;;;;4965503;28;20498;-71
2023/09/02 07:12:34;;;;;;;47.30;27.52;;;18.20;99.90;;;;;;4940217;28;20018;-72
2023/09/02 07:14:59;;;;;;;43.00;25.60;;;18.20;99.90;;;;;;4956429;28;20051;-71
2023/09/02 07:17:28;;;;;;;44.35;27.27;;;18.20;99.90;;;;;;4941402;28;20057;-72
2023/09/02 07:19:55;;;;;;;44.28;27.05;;;18.20;99.90;;;;;;4962952;28;20042;-72
2023/09/02 07:22:24;;;;;;;41.85;23.98;;;18.30;99.90;;;;;;4954846;28;20035;-73
2023/09/02 07:24:49;;;;;;;46.28;26.83;;;18.30;99.90;;;;;;4964961;28;20393;-73
2023/09/02 07:27:15;;;;;;;48.15;26.73;;;18.30;99.90;;;;;;4967376;28;20023;-72
2023/09/02 07:29:41;;;;;;;43.13;25.05;;;18.30;99.90;;;;;;4949474;28;20024;-72
2023/09/02 07:32:06;;;;;;;42.00;25.10;;;18.30;99.90;;;;;;4948064;28;20035;-72
2023/09/02 07:34:37;;;;;;;39.10;23.45;;;18.30;99.90;;;;;;4936584;29;20031;-72
2023/09/02 07:37:09;;;;;;;39.55;23.70;;;18.30;99.90;;;;;;4964432;28;20112;-72
2023/09/02 07:39:34;;;;;;;34.65;22.75;;;18.30;99.90;;;;;;4968384;28;20047;-72
2023/09/02 07:42:00;;;;;;;36.83;22.60;;;18.40;99.90;;;;;;4964133;28;20034;-72
2023/09/02 07:44:26;;;;;;;33.50;21.65;;;18.40;99.90;;;;;;4966943;28;20046;-72
2023/09/02 07:46:51;;;;;;;36.20;21.90;;;18.50;99.90;;;;;;4961310;28;20461;-72
2023/09/02 07:49:17;;;;;;;31.67;19.75;;;18.40;99.90;;;;;;4959427;28;20023;-72
2023/09/02 07:51:44;;;;;;;39.55;23.08;;;18.40;99.90;;;;;;4967090;28;20504;-72
2023/09/02 07:54:10;;;;;;;36.28;22.27;;;18.50;99.90;;;;;;4951787;28;20071;-72
2023/09/02 07:56:38;;;;;;;30.70;20.75;;;18.50;99.90;;;;;;4957111;28;20433;-71
2023/09/02 07:59:05;;;;;;;35.08;22.05;;;18.50;99.90;;;;;;4962964;28;20093;-71
2023/09/02 08:01:31;;;;;;;33.70;20.75;;;18.60;99.90;;;;;;4966720;28;20030;-72
2023/09/02 08:03:57;;;;;;;34.88;21.92;;;18.60;99.90;;;;;;4961206;28;20123;-72
2023/09/02 08:06:22;;;;;;;29.67;20.15;;;18.60;99.90;;;;;;4959269;28;20035;-72
2023/09/02 08:08:48;;;;;;;30.55;20.30;;;18.60;99.90;;;;;;4966963;28;20046;-72
2023/09/02 08:11:17;;;;;;;34.75;22.52;;;18.60;99.90;;;;;;4958352;28;20038;-71
2023/09/02 08:13:46;;;;;;;28.92;19.30;;;18.60;99.90;;;;;;4933454;28;20504;-72
2023/09/02 08:16:12;;;;;;;31.10;20.27;;;18.60;99.90;;;;;;4953646;29;20540;-72
2023/09/02 08:18:38;;;;;;;26.95;19.00;;;18.60;99.90;;;;;;4952807;29;20023;-72
2023/09/02 08:21:10;;;;;;;25.65;18.15;;;18.70;99.90;;;;;;4954012;28;20019;-72
2023/09/02 08:23:38;;;;;;;25.73;19.10;;;18.70;99.90;;;;;;4952799;29;20024;-72
2023/09/02 08:26:18;;;;;;;26.08;18.90;;;18.70;99.90;;;;;;4966881;28;20075;-72
2023/09/02 08:28:45;;;;;;;29.17;20.25;;;18.70;99.90;;;;;;4964861;28;20497;-72
2023/09/02 08:31:14;;;;;;;30.23;20.63;;;18.70;99.90;;;;;;4958941;28;20075;-72
2023/09/02 08:33:40;;;;;;;27.20;20.13;;;18.70;99.90;;;;;;4961635;28;20102;-72
2023/09/02 08:36:06;;;;;;;24.80;19.30;;;18.70;99.90;;;;;;4949123;28;20596;-71
2023/09/02 08:38:33;;;;;;;24.75;18.42;;;18.70;99.90;;;;;;4961237;28;20047;-72
2023/09/02 08:41:04;;;;;;;23.90;18.30;;;18.70;99.90;;;;;;4958538;28;20023;-73
2023/09/02 08:43:31;;;;;;;26.45;19.80;;;18.80;99.90;;;;;;4963933;28;20065;-72
2023/09/02 08:46:02;;;;;;;25.73;18.55;;;18.80;99.90;;;;;;4968834;28;20019;-72
2023/09/02 08:48:34;;;;;;;26.38;18.77;;;18.80;99.90;;;;;;4963071;28;20019;-73
2023/09/02 08:51:00;;;;;;;24.58;18.70;;;18.90;99.90;;;;;;4962471;28;20031;-72
2023/09/02 08:53:28;;;;;;;27.08;19.73;;;18.90;99.90;;;;;;4960463;28;20023;-72
2023/09/02 08:55:55;;;;;;;27.30;19.90;;;18.90;99.90;;;;;;4956218;29;20020;-71
2023/09/02 08:58:31;;;;;;;26.38;19.02;;;18.90;99.90;;;;;;4966494;28;20026;-71
2023/09/02 09:00:57;;;;;;;27.35;19.58;;;19.00;99.90;;;;;;4962664;28;20114;-71
2023/09/02 09:03:28;;;;;;;27.63;19.65;;;19.00;99.90;;;;;;4963848;28;20034;-71
2023/09/02 09:05:58;;;;;;;;;;;19.00;99.90;;;;;;4950307;28;20058;-71
2023/09/02 09:08:24;;;;;;;27.02;19.88;;;19.00;99.90;;;;;;4959542;28;19940;-72
2023/09/02 09:10:50;;;;;;;25.60;18.73;;;19.00;99.90;;;;;;4957050;28;20063;-71
2023/09/02 09:13:18;;;;;;;24.83;19.20;;;19.00;99.90;;;;;;4946599;28;20114;-72
2023/09/02 09:15:48;;;;;;;29.10;20.33;;;19.10;99.90;;;;;;4955853;29;20053;-71
2023/09/02 09:18:14;;;;;;;26.70;19.15;;;19.10;99.90;;;;;;4962309;28;20034;-71
2023/09/02 09:20:40;;;;;;;17.40;14.45;;;19.10;99.90;;;;;;4963477;28;20061;-72
2023/09/02 09:23:12;;;;;;;23.75;18.73;;;19.10;99.90;;;;;;4962867;28;20106;-72
2023/09/02 09:25:37;;;;;;;23.30;18.35;;;19.20;99.90;;;;;;4959831;28;20035;-71
2023/09/02 09:28:11;;;;;;;28.80;20.75;;;19.20;99.90;;;;;;4959155;28;20200;-71
2023/09/02 09:30:37;;;;;;;28.15;20.92;;;19.20;99.90;;;;;;4956559;28;20031;-71
2023/09/02 09:33:07;;;;;;;26.58;20.48;;;19.20;99.90;;;;;;4960829;28;20504;-72
2023/09/02 09:35:33;;;;;;;33.65;23.98;;;19.20;99.90;;;;;;4972952;28;20023;-71
2023/09/02 09:38:01;;;;;;;26.17;19.80;;;19.20;99.90;;;;;;4968769;28;20653;-72
2023/09/02 09:40:31;;;;;;;21.27;16.95;;;19.20;99.90;;;;;;4948645;28;20031;-72
2023/09/02 09:43:13;;;;;;;22.52;16.55;;;19.20;99.90;;;;;;4960903;28;20548;-72
2023/09/02 09:45:51;;;;;;;21.70;18.25;;;19.20;99.90;;;;;;4962911;28;20062;-72
2023/09/02 09:48:17;;;;;;;23.27;17.42;;;19.30;99.90;;;;;;4944323;28;20025;-72
2023/09/02 09:50:43;;;;;;;22.08;17.70;;;19.30;99.90;;;;;;4963756;28;20031;-71
2023/09/02 09:53:09;;;;;;;21.42;17.40;;;19.40;99.90;;;;;;4968327;28;20036;-71
2023/09/02 09:55:36;;;;;;;21.85;17.15;;;19.50;99.90;;;;;;4964577;28;20020;-71
2023/09/02 09:58:03;;;;;;;20.67;17.63;;;19.60;99.90;;;;;;4960930;28;20038;-71
2023/09/02 10:00:29;;;;;;;20.67;15.95;;;19.70;99.90;;;;;;4966220;28;20557;-72
2023/09/02 10:03:00;;;;;;;20.20;16.60;;;19.80;99.90;;;;;;4946537;29;20033;-71
2023/09/02 10:05:41;;;;;;;22.02;16.52;;;19.90;99.90;;;;;;4960418;28;20067;-71
2023/09/02 10:08:08;;;;;;;17.67;14.68;;;20.00;99.90;;;;;;4959989;28;20722;-71
2023/09/02 10:10:35;;;;;;;19.33;16.00;;;20.00;99.90;;;;;;4969501;28;20141;-71
2023/09/02 10:13:01;;;;;;;18.50;15.38;;;20.10;99.90;;;;;;4964386;28;20093;-71
2023/09/02 10:15:28;;;;;;;18.73;15.35;;;20.10;99.90;;;;;;4966301;28;20030;-71
2023/09/02 10:18:03;;;;;;;18.73;14.68;;;20.20;99.90;;;;;;4954514;29;20023;-72
2023/09/02 10:20:35;;;;;;;17.60;14.30;;;20.30;99.90;;;;;;4936310;29;20445;-71
2023/09/02 10:23:10;;;;;;;17.98;14.43;;;20.40;99.90;;;;;;4960262;28;20049;-72
2023/09/02 10:26:13;;;;;;;17.73;14.98;;;20.50;99.90;;;;;;4942536;28;20028;-72
2023/09/02 10:28:40;;;;;;;18.02;13.85;;;20.60;99.90;;;;;;4962811;28;20031;-72
2023/09/02 10:31:20;;;;;;;19.83;15.40;;;20.60;99.90;;;;;;4968088;28;20035;-72
2023/09/02 10:33:56;;;;;;;19.17;15.32;;;20.60;99.90;;;;;;4945460;29;20038;-73
2023/09/02 10:36:26;;;;;;;15.77;13.45;;;20.70;99.90;;;;;;4967471;28;20835;-72
2023/09/02 10:38:53;;;;;;;16.50;14.25;;;20.60;99.90;;;;;;4965803;28;20051;-72
2023/09/02 10:41:22;;;;;;;17.42;13.82;;;20.60;99.90;;;;;;4960077;28;20031;-72
2023/09/02 10:43:48;;;;;;;14.75;12.95;;;20.60;99.90;;;;;;4963099;28;20113;-72
2023/09/02 10:46:16;;;;;;;13.90;11.85;;;20.60;99.90;;;;;;4967778;28;20492;-72
2023/09/02 10:48:44;;;;;;;15.93;12.80;;;20.70;99.90;;;;;;4962634;28;20050;-72
2023/09/02 10:51:11;;;;;;;14.13;12.27;;;20.70;99.90;;;;;;4960071;28;20102;-71
2023/09/02 10:53:52;;;;;;;16.23;13.88;;;20.70;99.90;;;;;;4958054;28;20030;-71
2023/09/02 10:56:30;;;;;;;15.35;13.75;;;20.70;99.90;;;;;;4949808;28;20399;-71
2023/09/02 10:58:57;;;;;;;16.80;13.93;;;20.70;99.90;;;;;;4960738;28;20082;-72
2023/09/02 11:01:24;;;;;;;15.02;13.23;;;20.70;99.90;;;;;;4958220;28;20091;-71
2023/09/02 11:03:52;;;;;;;15.88;14.05;;;20.80;99.90;;;;;;4956925;28;20031;-71
2023/09/02 11:06:20;;;;;;;15.57;13.98;;;20.80;99.90;;;;;;4955297;28;20023;-71
2023/09/02 11:08:49;;;;;;;14.82;13.27;;;20.80;99.90;;;;;;4959227;28;20034;-72
2023/09/02 11:11:15;;;;;;;14.15;12.68;;;20.80;99.90;;;;;;4963702;28;20136;-71
2023/09/02 11:14:06;;;;;;;14.90;13.30;;;20.80;99.90;;;;;;4961006;28;20019;-71
2023/09/02 11:16:32;;;;;;;13.50;12.10;;;20.80;99.90;;;;;;4944383;29;20023;-71
2023/09/02 11:19:00;;;;;;;14.32;12.32;;;20.80;99.90;;;;;;4960226;28;20021;-72
2023/09/02 11:21:46;;;;;;;15.88;12.27;;;20.80;99.90;;;;;;4941207;29;20019;-72
2023/09/02 11:24:19;;;;;;;12.57;11.27;;;20.80;99.90;;;;;;4965338;28;20026;-71
2023/09/02 11:27:00;;;;;;;12.73;10.93;;;20.80;99.90;;;;;;4946105;29;20073;-71
2023/09/02 11:29:25;;;;;;;;;;;20.90;99.90;;;;;;4967339;28;20034;-71
2023/09/02 11:31:59;;;;;;;10.13;9.13;;;20.90;99.90;;;;;;4963192;28;19910;-71
2023/09/02 11:34:31;;;;;;;12.40;10.82;;;20.90;99.90;;;;;;4955560;28;20031;-71
2023/09/02 11:37:10;;;;;;;12.45;11.10;;;21.00;99.90;;;;;;4930911;29;20019;-71
2023/09/02 11:39:39;;;;;;;12.43;10.95;;;20.90;99.90;;;;;;4967877;28;20081;-72
2023/09/02 11:42:12;;;;;;;12.57;11.27;;;21.00;99.90;;;;;;4969389;28;20073;-72
2023/09/02 11:44:50;;;;;;;13.20;11.80;;;21.00;99.90;;;;;;4965024;28;20202;-72
2023/09/02 11:47:16;;;;;;;14.20;12.70;;;21.00;99.90;;;;;;4956686;28;20050;-72
2023/09/02 11:49:42;;;;;;;12.13;10.82;;;21.00;99.90;;;;;;4962589;28;20461;-71
2023/09/02 11:52:13;;;;;;;9.55;8.55;;;21.00;99.90;;;;;;4960809;28;20114;-72
2023/09/02 11:54:39;;;;;;;9.80;8.90;;;21.10;99.90;;;;;;4941427;28;20028;-71
2023/09/02 11:57:05;;;;;;;9.65;8.68;;;21.10;99.90;;;;;;4957782;28;20011;-72
2023/09/02 11:59:31;;;;;;;10.05;9.15;;;21.10;99.90;;;;;;4954818;28;20178;-72
2023/09/02 12:02:11;;;;;;;10.60;8.93;;;21.10;99.90;;;;;;4959915;28;20078;-72
2023/09/02 12:04:41;;;;;;;9.63;8.63;;;21.10;99.90;;;;;;4951658;28;20045;-72
2023/09/02 12:07:11;;;;;;;10.85;9.75;;;21.20;99.90;;;;;;4947120;28;20022;-72
2023/09/02 12:09:37;;;;;;;11.65;10.45;;;21.20;99.90;;;;;;4958442;28;20019;-73
2023/09/02 12:12:04;;;;;;;10.88;9.77;;;21.20;99.90;;;;;;4964677;28;20079;-73
2023/09/02 12:14:30;;;;;;;13.02;10.55;;;21.20;99.90;;;;;;4967828;28;20027;-72
2023/09/02 12:16:59;;;;;;;11.43;9.98;;;21.20;99.90;;;;;;4954577;28;20496;-73
2023/09/02 12:19:25;;;;;;;11.63;10.48;;;21.20;99.90;;;;;;4964840;28;20090;-73
2023/09/02 12:21:52;;;;;;;11.38;10.18;;;21.20;99.90;;;;;;4968273;28;20125;-72
2023/09/02 12:24:18;;;;;;;12.00;9.57;;;21.10;99.90;;;;;;4962114;28;20051;-72
2023/09/02 12:26:49;;;;;;;13.60;10.82;;;21.10;99.90;;;;;;4966475;28;20011;-73
2023/09/02 12:29:22;;;;;;;12.50;11.20;;;21.10;99.90;;;;;;4961682;28;20054;-73
2023/09/02 12:32:00;;;;;;;11.25;10.05;;;21.00;99.90;;;;;;4962331;28;20034;-73
2023/09/02 12:34:34;;;;;;;10.10;9.02;;;21.10;99.90;;;;;;4969052;28;20023;-73